地図

経路データ

SID SEASON NUMBER BASIN SUBBASIN NAME ISO_TIME NATURE LAT LON WMO_WIND WMO_PRES WMO_AGENCY TRACK_TYPE DIST2LAND LANDFALL IFLAG USA_AGENCY USA_ATCF_ID USA_LAT USA_LON USA_RECORD USA_STATUS USA_WIND USA_PRES USA_SSHS USA_R34_NE USA_R34_SE USA_R34_SW USA_R34_NW USA_R50_NE USA_R50_SE USA_R50_SW USA_R50_NW USA_R64_NE USA_R64_SE USA_R64_SW USA_R64_NW USA_POCI USA_ROCI USA_RMW USA_EYE TOKYO_LAT TOKYO_LON TOKYO_GRADE TOKYO_WIND TOKYO_PRES TOKYO_R50_DIR TOKYO_R50_LONG TOKYO_R50_SHORT TOKYO_R30_DIR TOKYO_R30_LONG TOKYO_R30_SHORT TOKYO_LAND CMA_LAT CMA_LON CMA_CAT CMA_WIND CMA_PRES HKO_LAT HKO_LON HKO_CAT HKO_WIND HKO_PRES NEWDELHI_LAT NEWDELHI_LON NEWDELHI_GRADE NEWDELHI_WIND NEWDELHI_PRES NEWDELHI_CI NEWDELHI_DP NEWDELHI_POCI REUNION_LAT REUNION_LON REUNION_TYPE REUNION_WIND REUNION_PRES REUNION_TNUM REUNION_CI REUNION_RMW REUNION_R34_NE REUNION_R34_SE REUNION_R34_SW REUNION_R34_NW REUNION_R50_NE REUNION_R50_SE REUNION_R50_SW REUNION_R50_NW REUNION_R64_NE REUNION_R64_SE REUNION_R64_SW REUNION_R64_NW BOM_LAT BOM_LON BOM_TYPE BOM_WIND BOM_PRES BOM_TNUM BOM_CI BOM_RMW BOM_R34_NE BOM_R34_SE BOM_R34_SW BOM_R34_NW BOM_R50_NE BOM_R50_SE BOM_R50_SW BOM_R50_NW BOM_R64_NE BOM_R64_SE BOM_R64_SW BOM_R64_NW BOM_ROCI BOM_POCI BOM_EYE BOM_POS_METHOD BOM_PRES_METHOD NADI_LAT NADI_LON NADI_CAT NADI_WIND NADI_PRES WELLINGTON_LAT WELLINGTON_LON WELLINGTON_WIND WELLINGTON_PRES DS824_LAT DS824_LON DS824_STAGE DS824_WIND DS824_PRES TD9636_LAT TD9636_LON TD9636_STAGE TD9636_WIND TD9636_PRES TD9635_LAT TD9635_LON TD9635_WIND TD9635_PRES TD9635_ROCI NEUMANN_LAT NEUMANN_LON NEUMANN_CLASS NEUMANN_WIND NEUMANN_PRES MLC_LAT MLC_LON MLC_CLASS MLC_WIND MLC_PRES USA_GUST BOM_GUST BOM_GUST_PER REUNION_GUST REUNION_GUST_PER USA_SEAHGT USA_SEARAD_NE USA_SEARAD_SE USA_SEARAD_SW USA_SEARAD_NW STORM_SPEED STORM_DIR
1878345S09432 1879 43 SI MM NOT_NAMED 1878-12-10 18:00:00 NR -9.30000 71.9000 main 1946 1923 __________O___ -1 -9.30000 71.9000 7 6 207
1878345S09432 1879 43 SI MM NOT_NAMED 1878-12-10 21:00:00 NR -9.54373 71.7703 main 1923 1884 __________P___ -1 -9.54373 71.7703 7 6 207
1878345S09432 1879 43 SI MM NOT_NAMED 1878-12-11 00:00:00 NR -9.80994 71.6324 main 1884 1855 __________P___ -1 -9.80994 71.6324 7 6 207
1878345S09432 1879 43 SI MM NOT_NAMED 1878-12-11 03:00:00 NR -10.1212 71.4784 main 1855 1810 __________P___ -1 -10.1212 71.4784 7 8 205
1878345S09432 1879 43 SI MM NOT_NAMED 1878-12-11 06:00:00 NR -10.5000 71.3000 main 1810 1765 __________O___ -1 -10.5000 71.3000 7 9 204
1878345S09432 1879 43 SI MM NOT_NAMED 1878-12-11 09:00:00 NR -10.9620 71.0925 main 1758 1707 __________P___ -1 -10.9620 71.0925 7 11 203
1878345S09432 1879 43 SI MM NOT_NAMED 1878-12-11 12:00:00 NR -11.4952 70.8650 main 1707 1648 __________P___ -1 -11.4952 70.8650 7 12 202
1878345S09432 1879 43 SI MM NOT_NAMED 1878-12-11 15:00:00 NR -12.0808 70.6299 main 1642 1586 __________P___ -1 -12.0808 70.6299 7 13 201
1878345S09432 1879 43 SI MM NOT_NAMED 1878-12-11 18:00:00 NR -12.7000 70.4000 main 1586 1532 __________O___ -1 -12.7000 70.4000 7 13 200
1878345S09432 1879 43 SI MM NOT_NAMED 1878-12-11 21:00:00 NR -13.2970 70.1725 main 1532 1479 __________P___ -1 -13.2970 70.1725 7 13 199
1878345S09432 1879 43 SI MM NOT_NAMED 1878-12-12 00:00:00 NR -13.9252 69.9551 main 1479 1423 __________P___ -1 -13.9252 69.9551 7 14 197
1878345S09432 1879 43 SI MM NOT_NAMED 1878-12-12 03:00:00 NR -14.5908 69.7601 main 1423 1368 __________P___ -1 -14.5908 69.7601 7 14 194
1878345S09432 1879 43 SI MM NOT_NAMED 1878-12-12 06:00:00 NR -15.3000 69.6000 main 1368 1326 __________O___ -1 -15.3000 69.6000 7 15 191
1878345S09432 1879 43 SI MM NOT_NAMED 1878-12-12 09:00:00 NR -16.0649 69.4491 main 1311 1273 __________P___ -1 -16.0649 69.4491 7 16 189
1878345S09432 1879 43 SI MM NOT_NAMED 1878-12-12 12:00:00 NR -16.8699 69.3387 main 1269 1246 __________P___ -1 -16.8699 69.3387 7 16 186
1878345S09432 1879 43 SI MM NOT_NAMED 1878-12-12 15:00:00 NR -17.6899 69.2839 main 1243 1222 __________P___ -1 -17.6899 69.2839 7 16 181
1878345S09432 1879 43 SI MM NOT_NAMED 1878-12-12 18:00:00 NR -18.5000 69.3000 main 1222 1212 __________O___ -1 -18.5000 69.3000 7 16 176
1878345S09432 1879 43 SI MM NOT_NAMED 1878-12-12 21:00:00 NR -19.2886 69.3861 main 1218 1214 __________P___ -1 -19.2886 69.3861 7 16 172
1878345S09432 1879 43 SI MM NOT_NAMED 1878-12-13 00:00:00 NR -20.0598 69.5442 main 1220 1220 __________P___ -1 -20.0598 69.5442 7 16 167
1878345S09432 1879 43 SI MM NOT_NAMED 1878-12-13 03:00:00 NR -20.8011 69.7553 main 1250 1250 __________P___ -1 -20.8011 69.7553 7 15 164
1878345S09432 1879 43 SI MM NOT_NAMED 1878-12-13 06:00:00 NR -21.5000 70.0000 main 1273 1273 __________O___ -1 -21.5000 70.0000 7 14 162
1878345S09432 1879 43 SI MM NOT_NAMED 1878-12-13 09:00:00 NR -22.1593 70.2424 main 1301 1301 __________P___ -1 -22.1593 70.2424 7 14 160
1878345S09432 1879 43 SI MM NOT_NAMED 1878-12-13 12:00:00 NR -22.7748 70.5128 main 1342 1342 __________P___ -1 -22.7748 70.5128 7 13 157
1878345S09432 1879 43 SI MM NOT_NAMED 1878-12-13 15:00:00 NR -23.3530 70.8019 main 1384 1384 __________P___ -1 -23.3530 70.8019 7 13 154
1878345S09432 1879 43 SI MM NOT_NAMED 1878-12-13 18:00:00 NR -23.9000 71.1000 main 1426 1426 __________O___ -1 -23.9000 71.1000 7 12 154
1878345S09432 1879 43 SI MM NOT_NAMED 1878-12-13 21:00:00 NR -24.3832 71.3516 main 1470 1470 __________P___ -1 -24.3832 71.3516 7 11 154
1878345S09432 1879 43 SI MM NOT_NAMED 1878-12-14 00:00:00 NR -24.8462 71.6156 main 1502 1502 __________P___ -1 -24.8462 71.6156 7 11 151
1878345S09432 1879 43 SI MM NOT_NAMED 1878-12-14 03:00:00 NR -25.3360 71.9214 main 1547 1547 __________P___ -1 -25.3360 71.9214 7 12 150
1878345S09432 1879 43 SI MM NOT_NAMED 1878-12-14 06:00:00 NR -25.9000 72.3000 main 1607 1607 __________O___ -1 -25.9000 72.3000 7 15 149
1878345S09432 1879 43 SI MM NOT_NAMED 1878-12-14 09:00:00 NR -26.6120 72.7671 main 1681 1681 __________P___ -1 -26.6120 72.7671 7 18 149
1878345S09432 1879 43 SI MM NOT_NAMED 1878-12-14 12:00:00 NR -27.3971 73.3149 main 1759 1759 __________P___ -1 -27.3971 73.3149 7 19 147
1878345S09432 1879 43 SI MM NOT_NAMED 1878-12-14 15:00:00 NR -28.2085 73.9305 main 1849 1849 __________P___ -1 -28.2085 73.9305 7 20 145
1878345S09432 1879 43 SI MM NOT_NAMED 1878-12-14 18:00:00 NR -29.0000 74.6000 main 1948 1948 __________O___ -1 -29.0000 74.6000 7 20 142
1878345S09432 1879 43 SI MM NOT_NAMED 1878-12-14 21:00:00 NR -29.7357 75.3096 main 2043 2043 __________P___ -1 -29.7357 75.3096 7 19 138
1878345S09432 1879 43 SI MM NOT_NAMED 1878-12-15 00:00:00 NR -30.4208 76.0509 main 2133 2080 __________P___ -1 -30.4208 76.0509 7 19 136
1878345S09432 1879 43 SI MM NOT_NAMED 1878-12-15 03:00:00 NR -31.0705 76.8167 main 2071 2024 __________P___ -1 -31.0705 76.8167 7 18 134
1878345S09432 1879 43 SI MM NOT_NAMED 1878-12-15 06:00:00 NR -31.7000 77.6000 main 2024 __________O___ -1 -31.7000 77.6000 7 18 133

IBTrACS Databaseについて

本データベースは、米国NOAAが公開する1842年以降の世界の熱帯低気圧のベストトラックデータアーカイブInternational Best Track Archive for Climate Stewardship (IBTrACS)を、ウェブで閲覧しやすい形式に変換したものです。

最終更新日:2021-10-08